sensor_id;sensor_type;location;lat;lon;timestamp;pressure;altitude;pressure_sealevel;temperature;humidity
65394;BME280;52002;49.760;6.512;2023-08-08T00:00:15;100117.92;;;12.43;72.88
65394;BME280;52002;49.760;6.512;2023-08-08T00:02:40;100119.70;;;12.39;73.03
65394;BME280;52002;49.760;6.512;2023-08-08T00:05:06;100117.67;;;12.38;73.35
65394;BME280;52002;49.760;6.512;2023-08-08T00:07:31;100117.83;;;12.37;73.19
65394;BME280;52002;49.760;6.512;2023-08-08T00:09:56;100121.67;;;12.30;73.02
65394;BME280;52002;49.760;6.512;2023-08-08T00:12:23;100124.84;;;12.26;73.36
65394;BME280;52002;49.760;6.512;2023-08-08T00:14:49;100125.69;;;12.25;73.36
65394;BME280;52002;49.760;6.512;2023-08-08T00:17:14;100128.39;;;12.26;73.54
65394;BME280;52002;49.760;6.512;2023-08-08T00:19:40;100127.60;;;12.29;73.58
65394;BME280;52002;49.760;6.512;2023-08-08T00:22:05;100125.00;;;12.28;73.57
65394;BME280;52002;49.760;6.512;2023-08-08T00:24:31;100129.42;;;12.27;73.42
65394;BME280;52002;49.760;6.512;2023-08-08T00:26:56;100127.69;;;12.19;73.19
65394;BME280;52002;49.760;6.512;2023-08-08T00:29:21;100127.27;;;12.13;73.32
65394;BME280;52002;49.760;6.512;2023-08-08T00:31:47;100124.68;;;12.11;73.42
65394;BME280;52002;49.760;6.512;2023-08-08T00:34:12;100121.95;;;12.06;73.52
65394;BME280;52002;49.760;6.512;2023-08-08T00:36:37;100124.01;;;12.01;73.48
65394;BME280;52002;49.760;6.512;2023-08-08T00:39:03;100121.73;;;12.00;73.66
65394;BME280;52002;49.760;6.512;2023-08-08T00:41:28;100124.68;;;11.99;73.76
65394;BME280;52002;49.760;6.512;2023-08-08T00:43:53;100125.09;;;11.98;73.59
65394;BME280;52002;49.760;6.512;2023-08-08T00:46:21;100120.39;;;11.93;73.65
65394;BME280;52002;49.760;6.512;2023-08-08T00:48:47;100114.93;;;11.94;73.85
65394;BME280;52002;49.760;6.512;2023-08-08T00:51:13;100115.58;;;11.95;73.94
65394;BME280;52002;49.760;6.512;2023-08-08T00:53:38;100111.38;;;11.90;73.66
65394;BME280;52002;49.760;6.512;2023-08-08T00:56:04;100110.06;;;11.81;73.73
65394;BME280;52002;49.760;6.512;2023-08-08T00:58:30;100113.40;;;11.76;73.88
65394;BME280;52002;49.760;6.512;2023-08-08T01:00:56;100112.32;;;11.74;73.87
65394;BME280;52002;49.760;6.512;2023-08-08T01:03:25;100117.28;;;11.77;74.12
65394;BME280;52002;49.760;6.512;2023-08-08T01:05:58;100110.91;;;11.76;73.95
65394;BME280;52002;49.760;6.512;2023-08-08T01:08:33;100110.09;;;11.69;73.96
65394;BME280;52002;49.760;6.512;2023-08-08T01:11:01;100110.83;;;11.67;74.10
65394;BME280;52002;49.760;6.512;2023-08-08T01:13:28;100107.99;;;11.67;74.24
65394;BME280;52002;49.760;6.512;2023-08-08T01:15:57;100110.91;;;11.70;74.31
65394;BME280;52002;49.760;6.512;2023-08-08T01:18:23;100109.56;;;11.72;74.19
65394;BME280;52002;49.760;6.512;2023-08-08T01:20:49;100109.02;;;11.72;74.26
65394;BME280;52002;49.760;6.512;2023-08-08T01:23:24;100108.16;;;11.69;74.06
65394;BME280;52002;49.760;6.512;2023-08-08T01:25:52;100112.13;;;11.65;74.05
65394;BME280;52002;49.760;6.512;2023-08-08T01:28:22;100111.05;;;11.55;73.86
65394;BME280;52002;49.760;6.512;2023-08-08T01:30:48;100113.16;;;11.49;74.04
65394;BME280;52002;49.760;6.512;2023-08-08T01:33:13;100112.27;;;11.42;73.95
65394;BME280;52002;49.760;6.512;2023-08-08T01:35:43;100115.00;;;11.41;74.55
65394;BME280;52002;49.760;6.512;2023-08-08T01:40:50;100112.84;;;11.45;74.48
65394;BME280;52002;49.760;6.512;2023-08-08T01:43:16;100108.88;;;11.43;74.43
65394;BME280;52002;49.760;6.512;2023-08-08T01:45:44;100113.34;;;11.44;74.54
65394;BME280;52002;49.760;6.512;2023-08-08T01:48:10;100116.04;;;11.39;74.33
65394;BME280;52002;49.760;6.512;2023-08-08T01:50:37;100113.98;;;11.34;74.24
65394;BME280;52002;49.760;6.512;2023-08-08T01:53:03;100108.83;;;11.36;74.66
65394;BME280;52002;49.760;6.512;2023-08-08T01:55:29;100107.00;;;11.38;74.53
65394;BME280;52002;49.760;6.512;2023-08-08T01:57:54;100108.00;;;11.35;74.35
65394;BME280;52002;49.760;6.512;2023-08-08T02:00:20;100105.33;;;11.29;74.42
65394;BME280;52002;49.760;6.512;2023-08-08T02:02:45;100107.75;;;11.24;74.36
65394;BME280;52002;49.760;6.512;2023-08-08T02:05:10;100109.89;;;11.22;74.32
65394;BME280;52002;49.760;6.512;2023-08-08T02:07:36;100117.69;;;11.19;74.41
65394;BME280;52002;49.760;6.512;2023-08-08T02:10:01;100116.52;;;11.14;74.49
65394;BME280;52002;49.760;6.512;2023-08-08T02:12:26;100114.98;;;11.11;74.59
65394;BME280;52002;49.760;6.512;2023-08-08T02:14:54;100121.36;;;11.10;74.57
65394;BME280;52002;49.760;6.512;2023-08-08T02:17:20;100116.04;;;11.11;74.85
65394;BME280;52002;49.760;6.512;2023-08-08T02:19:46;100120.57;;;11.10;74.75
65394;BME280;52002;49.760;6.512;2023-08-08T02:22:11;100121.73;;;11.13;74.93
65394;BME280;52002;49.760;6.512;2023-08-08T02:24:37;100118.35;;;11.13;74.83
65394;BME280;52002;49.760;6.512;2023-08-08T02:27:02;100117.73;;;11.10;74.78
65394;BME280;52002;49.760;6.512;2023-08-08T02:29:28;100117.30;;;11.07;74.77
65394;BME280;52002;49.760;6.512;2023-08-08T02:31:53;100114.23;;;11.07;74.86
65394;BME280;52002;49.760;6.512;2023-08-08T02:34:18;100113.31;;;11.08;74.85
65394;BME280;52002;49.760;6.512;2023-08-08T02:36:43;100116.14;;;11.04;74.67
65394;BME280;52002;49.760;6.512;2023-08-08T02:39:09;100120.12;;;10.99;74.55
65394;BME280;52002;49.760;6.512;2023-08-08T02:41:34;100119.65;;;10.96;74.85
65394;BME280;52002;49.760;6.512;2023-08-08T02:44:00;100114.37;;;10.96;74.89
65394;BME280;52002;49.760;6.512;2023-08-08T02:46:25;100116.10;;;10.94;75.02
65394;BME280;52002;49.760;6.512;2023-08-08T02:48:50;100115.64;;;10.92;74.92
65394;BME280;52002;49.760;6.512;2023-08-08T02:51:16;100118.34;;;10.91;74.98
65394;BME280;52002;49.760;6.512;2023-08-08T02:53:41;100122.46;;;10.89;74.96
65394;BME280;52002;49.760;6.512;2023-08-08T02:56:06;100120.36;;;10.86;74.78
65394;BME280;52002;49.760;6.512;2023-08-08T02:58:32;100118.15;;;10.87;75.02
65394;BME280;52002;49.760;6.512;2023-08-08T03:00:57;100116.54;;;10.87;74.77
65394;BME280;52002;49.760;6.512;2023-08-08T03:03:22;100114.35;;;10.86;74.92
65394;BME280;52002;49.760;6.512;2023-08-08T03:05:49;100111.42;;;10.83;74.82
65394;BME280;52002;49.760;6.512;2023-08-08T03:08:14;100111.31;;;10.82;74.85
65394;BME280;52002;49.760;6.512;2023-08-08T03:10:39;100113.90;;;10.76;74.76
65394;BME280;52002;49.760;6.512;2023-08-08T03:13:06;100112.33;;;10.74;74.85
65394;BME280;52002;49.760;6.512;2023-08-08T03:15:31;100114.14;;;10.72;74.88
65394;BME280;52002;49.760;6.512;2023-08-08T03:17:57;100112.13;;;10.68;74.80
65394;BME280;52002;49.760;6.512;2023-08-08T03:20:22;100116.35;;;10.65;74.86
65394;BME280;52002;49.760;6.512;2023-08-08T03:22:47;100113.36;;;10.60;74.57
65394;BME280;52002;49.760;6.512;2023-08-08T03:25:13;100112.59;;;10.59;74.90
65394;BME280;52002;49.760;6.512;2023-08-08T03:27:38;100110.86;;;10.59;74.86
65394;BME280;52002;49.760;6.512;2023-08-08T03:30:04;100106.14;;;10.60;75.34
65394;BME280;52002;49.760;6.512;2023-08-08T03:32:30;100104.48;;;10.60;75.15
65394;BME280;52002;49.760;6.512;2023-08-08T03:34:55;100102.63;;;10.61;75.25
65394;BME280;52002;49.760;6.512;2023-08-08T03:37:20;100109.16;;;10.58;75.17
65394;BME280;52002;49.760;6.512;2023-08-08T03:39:46;100107.48;;;10.57;75.13
65394;BME280;52002;49.760;6.512;2023-08-08T03:42:11;100108.58;;;10.54;75.10
65394;BME280;52002;49.760;6.512;2023-08-08T03:44:37;100108.98;;;10.56;75.24
65394;BME280;52002;49.760;6.512;2023-08-08T03:47:02;100106.96;;;10.52;74.91
65394;BME280;52002;49.760;6.512;2023-08-08T03:49:27;100109.60;;;10.50;74.97
65394;BME280;52002;49.760;6.512;2023-08-08T03:51:53;100106.41;;;10.46;75.04
65394;BME280;52002;49.760;6.512;2023-08-08T03:54:18;100107.13;;;10.45;75.24
65394;BME280;52002;49.760;6.512;2023-08-08T03:56:43;100106.19;;;10.46;75.60
65394;BME280;52002;49.760;6.512;2023-08-08T03:59:09;100105.79;;;10.45;75.33
65394;BME280;52002;49.760;6.512;2023-08-08T04:01:35;100103.52;;;10.44;75.42
65394;BME280;52002;49.760;6.512;2023-08-08T04:04:03;100096.08;;;10.46;75.62
65394;BME280;52002;49.760;6.512;2023-08-08T04:06:29;100095.73;;;10.46;75.19
65394;BME280;52002;49.760;6.512;2023-08-08T04:08:54;100094.25;;;10.46;75.27
65394;BME280;52002;49.760;6.512;2023-08-08T04:11:20;100094.57;;;10.43;75.02
65394;BME280;52002;49.760;6.512;2023-08-08T04:13:46;100097.13;;;10.44;75.60
65394;BME280;52002;49.760;6.512;2023-08-08T04:16:11;100097.77;;;10.47;75.50
65394;BME280;52002;49.760;6.512;2023-08-08T04:18:36;100095.66;;;10.47;75.42
65394;BME280;52002;49.760;6.512;2023-08-08T04:21:02;100098.51;;;10.51;75.62
65394;BME280;52002;49.760;6.512;2023-08-08T04:23:27;100096.48;;;10.48;75.25
65394;BME280;52002;49.760;6.512;2023-08-08T04:25:53;100093.40;;;10.46;75.42
65394;BME280;52002;49.760;6.512;2023-08-08T04:28:18;100093.30;;;10.47;75.56
65394;BME280;52002;49.760;6.512;2023-08-08T04:30:44;100098.45;;;10.50;75.61
65394;BME280;52002;49.760;6.512;2023-08-08T04:33:09;100097.52;;;10.55;75.67
65394;BME280;52002;49.760;6.512;2023-08-08T04:35:35;100099.17;;;10.56;75.36
65394;BME280;52002;49.760;6.512;2023-08-08T04:38:00;100097.48;;;10.61;75.56
65394;BME280;52002;49.760;6.512;2023-08-08T04:40:25;100097.27;;;10.63;75.44
65394;BME280;52002;49.760;6.512;2023-08-08T04:42:51;100100.80;;;10.68;75.66
65394;BME280;52002;49.760;6.512;2023-08-08T04:45:16;100099.32;;;10.72;75.33
65394;BME280;52002;49.760;6.512;2023-08-08T04:47:42;100092.64;;;10.75;75.36
65394;BME280;52002;49.760;6.512;2023-08-08T04:50:07;100099.59;;;10.77;75.23
65394;BME280;52002;49.760;6.512;2023-08-08T04:52:33;100098.42;;;10.83;75.09
65394;BME280;52002;49.760;6.512;2023-08-08T04:54:58;100101.33;;;10.86;74.85
65394;BME280;52002;49.760;6.512;2023-08-08T04:57:23;100100.98;;;10.90;74.69
65394;BME280;52002;49.760;6.512;2023-08-08T04:59:49;100099.20;;;10.98;75.16
65394;BME280;52002;49.760;6.512;2023-08-08T05:02:14;100098.20;;;11.03;74.63
65394;BME280;52002;49.760;6.512;2023-08-08T05:04:39;100093.04;;;11.07;74.65
65394;BME280;52002;49.760;6.512;2023-08-08T05:07:05;100090.83;;;11.12;74.41
65394;BME280;52002;49.760;6.512;2023-08-08T05:09:31;100090.14;;;11.16;74.21
65394;BME280;52002;49.760;6.512;2023-08-08T05:11:56;100092.29;;;11.18;74.35
65394;BME280;52002;49.760;6.512;2023-08-08T05:14:22;100091.23;;;11.22;74.51
65394;BME280;52002;49.760;6.512;2023-08-08T05:16:47;100098.90;;;11.27;74.22
65394;BME280;52002;49.760;6.512;2023-08-08T05:19:12;100099.31;;;11.33;74.17
65394;BME280;52002;49.760;6.512;2023-08-08T05:21:38;100093.10;;;11.41;74.15
65394;BME280;52002;49.760;6.512;2023-08-08T05:24:04;100101.00;;;11.52;73.96
65394;BME280;52002;49.760;6.512;2023-08-08T05:26:29;100100.73;;;11.59;73.67
65394;BME280;52002;49.760;6.512;2023-08-08T05:28:55;100103.30;;;11.71;73.42
65394;BME280;52002;49.760;6.512;2023-08-08T05:31:20;100099.05;;;11.89;73.60
65394;BME280;52002;49.760;6.512;2023-08-08T05:33:47;100099.88;;;12.09;73.23
65394;BME280;52002;49.760;6.512;2023-08-08T05:36:13;100097.66;;;12.29;72.89
65394;BME280;52002;49.760;6.512;2023-08-08T05:38:38;100098.80;;;12.53;72.87
65394;BME280;52002;49.760;6.512;2023-08-08T05:41:03;100099.33;;;12.77;72.20
65394;BME280;52002;49.760;6.512;2023-08-08T05:43:28;100101.48;;;13.01;71.98
65394;BME280;52002;49.760;6.512;2023-08-08T05:45:54;100102.63;;;13.22;71.61
65394;BME280;52002;49.760;6.512;2023-08-08T05:48:19;100091.96;;;13.42;71.02
65394;BME280;52002;49.760;6.512;2023-08-08T05:50:44;100095.33;;;13.64;70.65
65394;BME280;52002;49.760;6.512;2023-08-08T05:53:10;100096.50;;;14.56;69.20
65394;BME280;52002;49.760;6.512;2023-08-08T05:55:35;100092.70;;;17.32;66.07
65394;BME280;52002;49.760;6.512;2023-08-08T05:58:00;100096.02;;;20.28;62.36
65394;BME280;52002;49.760;6.512;2023-08-08T06:00:26;100098.90;;;22.82;58.24
65394;BME280;52002;49.760;6.512;2023-08-08T06:02:51;100106.40;;;24.80;54.44
65394;BME280;52002;49.760;6.512;2023-08-08T06:05:17;100114.71;;;26.84;50.78
65394;BME280;52002;49.760;6.512;2023-08-08T06:07:43;100112.48;;;28.84;47.19
65394;BME280;52002;49.760;6.512;2023-08-08T06:10:08;100117.92;;;30.61;44.15
65394;BME280;52002;49.760;6.512;2023-08-08T06:12:34;100120.06;;;32.17;41.61
65394;BME280;52002;49.760;6.512;2023-08-08T06:14:59;100112.08;;;33.55;38.97
65394;BME280;52002;49.760;6.512;2023-08-08T06:17:25;100115.52;;;34.52;36.89
65394;BME280;52002;49.760;6.512;2023-08-08T06:19:50;100116.23;;;34.43;35.77
65394;BME280;52002;49.760;6.512;2023-08-08T06:22:16;100115.30;;;34.03;35.15
65394;BME280;52002;49.760;6.512;2023-08-08T06:24:41;100116.67;;;33.53;34.59
65394;BME280;52002;49.760;6.512;2023-08-08T06:27:06;100117.09;;;32.59;34.72
65394;BME280;52002;49.760;6.512;2023-08-08T06:29:32;100117.11;;;31.66;35.09
65394;BME280;52002;49.760;6.512;2023-08-08T06:31:58;100115.65;;;30.18;35.83
65394;BME280;52002;49.760;6.512;2023-08-08T06:34:23;100115.98;;;28.81;37.28
65394;BME280;52002;49.760;6.512;2023-08-08T06:36:48;100115.73;;;27.89;38.39
65394;BME280;52002;49.760;6.512;2023-08-08T06:39:13;100117.21;;;27.00;39.23
65394;BME280;52002;49.760;6.512;2023-08-08T06:41:40;100117.32;;;26.34;40.00
65394;BME280;52002;49.760;6.512;2023-08-08T06:44:07;100119.48;;;25.38;41.24
65394;BME280;52002;49.760;6.512;2023-08-08T06:46:32;100113.81;;;24.63;42.45
65394;BME280;52002;49.760;6.512;2023-08-08T06:48:58;100111.66;;;24.05;43.44
65394;BME280;52002;49.760;6.512;2023-08-08T06:51:25;100109.73;;;23.63;44.22
65394;BME280;52002;49.760;6.512;2023-08-08T06:53:50;100112.35;;;23.20;45.29
65394;BME280;52002;49.760;6.512;2023-08-08T06:56:16;100104.74;;;22.91;45.80
65394;BME280;52002;49.760;6.512;2023-08-08T06:58:41;100102.11;;;22.43;46.47
65394;BME280;52002;49.760;6.512;2023-08-08T07:01:06;100102.86;;;22.11;47.35
65394;BME280;52002;49.760;6.512;2023-08-08T07:03:32;100104.70;;;21.74;48.12
65394;BME280;52002;49.760;6.512;2023-08-08T07:05:57;100105.99;;;21.51;48.82
65394;BME280;52002;49.760;6.512;2023-08-08T07:08:23;100107.06;;;21.04;49.63
65394;BME280;52002;49.760;6.512;2023-08-08T07:10:49;100099.90;;;20.49;50.59
65394;BME280;52002;49.760;6.512;2023-08-08T07:13:14;100094.98;;;20.04;51.46
65394;BME280;52002;49.760;6.512;2023-08-08T07:15:40;100100.27;;;19.68;52.25
65394;BME280;52002;49.760;6.512;2023-08-08T07:18:06;100104.70;;;19.35;52.77
65394;BME280;52002;49.760;6.512;2023-08-08T07:20:31;100103.11;;;19.16;53.40
65394;BME280;52002;49.760;6.512;2023-08-08T07:22:56;100104.11;;;19.05;54.02
65394;BME280;52002;49.760;6.512;2023-08-08T07:25:22;100101.28;;;19.02;54.55
65394;BME280;52002;49.760;6.512;2023-08-08T07:27:47;100100.27;;;19.04;54.94
65394;BME280;52002;49.760;6.512;2023-08-08T07:30:13;100099.23;;;18.94;55.21
65394;BME280;52002;49.760;6.512;2023-08-08T07:32:38;100100.08;;;19.04;55.53
65394;BME280;52002;49.760;6.512;2023-08-08T07:35:04;100091.23;;;19.29;55.50
65394;BME280;52002;49.760;6.512;2023-08-08T07:37:31;100091.39;;;19.28;55.43
65394;BME280;52002;49.760;6.512;2023-08-08T07:39:58;100091.19;;;19.59;55.14
65394;BME280;52002;49.760;6.512;2023-08-08T07:42:23;100096.77;;;19.73;54.92
65394;BME280;52002;49.760;6.512;2023-08-08T07:44:48;100100.33;;;19.66;55.08
65394;BME280;52002;49.760;6.512;2023-08-08T07:47:14;100093.79;;;19.97;54.88
65394;BME280;52002;49.760;6.512;2023-08-08T07:49:39;100085.95;;;20.31;54.59
65394;BME280;52002;49.760;6.512;2023-08-08T07:52:05;100078.56;;;20.63;54.13
65394;BME280;52002;49.760;6.512;2023-08-08T07:54:30;100082.30;;;20.89;53.77
65394;BME280;52002;49.760;6.512;2023-08-08T07:56:56;100080.90;;;21.66;52.75
65394;BME280;52002;49.760;6.512;2023-08-08T07:59:21;100078.66;;;22.23;51.64
65394;BME280;52002;49.760;6.512;2023-08-08T08:01:46;100082.51;;;23.66;50.06
65394;BME280;52002;49.760;6.512;2023-08-08T08:04:12;100079.05;;;25.66;47.45
65394;BME280;52002;49.760;6.512;2023-08-08T08:06:37;100077.61;;;26.75;45.29
65394;BME280;52002;49.760;6.512;2023-08-08T08:09:02;100070.48;;;26.78;44.33
65394;BME280;52002;49.760;6.512;2023-08-08T08:11:29;100075.89;;;26.92;43.56
65394;BME280;52002;49.760;6.512;2023-08-08T08:13:54;100072.98;;;26.19;43.56
65394;BME280;52002;49.760;6.512;2023-08-08T08:16:19;100066.92;;;25.53;43.92
65394;BME280;52002;49.760;6.512;2023-08-08T08:18:46;100065.94;;;25.08;44.46
65394;BME280;52002;49.760;6.512;2023-08-08T08:21:13;100068.64;;;24.62;45.17
65394;BME280;52002;49.760;6.512;2023-08-08T08:23:39;100073.83;;;24.21;45.46
65394;BME280;52002;49.760;6.512;2023-08-08T08:26:04;100076.05;;;24.55;45.34
65394;BME280;52002;49.760;6.512;2023-08-08T08:28:29;100077.18;;;25.86;43.36
65394;BME280;52002;49.760;6.512;2023-08-08T08:30:55;100074.23;;;26.66;42.29
65394;BME280;52002;49.760;6.512;2023-08-08T08:33:20;100082.41;;;28.06;40.69
65394;BME280;52002;49.760;6.512;2023-08-08T08:35:45;100082.35;;;27.94;39.92
65394;BME280;52002;49.760;6.512;2023-08-08T08:38:11;100083.98;;;27.45;40.30
65394;BME280;52002;49.760;6.512;2023-08-08T08:40:38;100087.77;;;28.20;39.45
65394;BME280;52002;49.760;6.512;2023-08-08T08:43:06;100089.66;;;28.07;39.64
65394;BME280;52002;49.760;6.512;2023-08-08T08:45:35;100085.98;;;27.74;39.92
65394;BME280;52002;49.760;6.512;2023-08-08T08:48:03;100086.75;;;27.37;39.87
65394;BME280;52002;49.760;6.512;2023-08-08T08:50:30;100081.95;;;26.69;40.66
65394;BME280;52002;49.760;6.512;2023-08-08T08:52:58;100074.36;;;25.91;41.05
65394;BME280;52002;49.760;6.512;2023-08-08T08:55:26;100074.83;;;25.40;41.97
65394;BME280;52002;49.760;6.512;2023-08-08T08:57:52;100069.86;;;24.84;42.51
65394;BME280;52002;49.760;6.512;2023-08-08T09:00:18;100067.39;;;24.26;43.20
65394;BME280;52002;49.760;6.512;2023-08-08T09:02:44;100071.63;;;23.80;43.77
65394;BME280;52002;49.760;6.512;2023-08-08T09:05:10;100066.89;;;23.64;44.53
65394;BME280;52002;49.760;6.512;2023-08-08T09:07:37;100064.81;;;23.27;45.03
65394;BME280;52002;49.760;6.512;2023-08-08T09:10:02;100064.58;;;23.01;45.20
65394;BME280;52002;49.760;6.512;2023-08-08T09:12:30;100064.25;;;22.91;45.24
65394;BME280;52002;49.760;6.512;2023-08-08T09:14:57;100066.40;;;22.79;45.32
65394;BME280;52002;49.760;6.512;2023-08-08T09:17:25;100065.80;;;22.74;45.36
65394;BME280;52002;49.760;6.512;2023-08-08T09:19:53;100064.74;;;22.61;45.91
65394;BME280;52002;49.760;6.512;2023-08-08T09:22:19;100058.60;;;22.44;46.13
65394;BME280;52002;49.760;6.512;2023-08-08T09:24:45;100056.11;;;22.32;46.52
65394;BME280;52002;49.760;6.512;2023-08-08T09:27:12;100054.80;;;22.35;46.64
65394;BME280;52002;49.760;6.512;2023-08-08T09:29:38;100054.26;;;22.36;47.01
65394;BME280;52002;49.760;6.512;2023-08-08T09:32:05;100055.64;;;22.37;47.06
65394;BME280;52002;49.760;6.512;2023-08-08T09:34:31;100053.23;;;22.38;46.80
65394;BME280;52002;49.760;6.512;2023-08-08T09:36:57;100053.67;;;22.43;46.53
65394;BME280;52002;49.760;6.512;2023-08-08T09:39:23;100052.23;;;22.52;46.29
65394;BME280;52002;49.760;6.512;2023-08-08T09:41:49;100054.80;;;22.70;46.32
65394;BME280;52002;49.760;6.512;2023-08-08T09:44:14;100052.03;;;22.89;46.09
65394;BME280;52002;49.760;6.512;2023-08-08T09:46:40;100054.23;;;22.93;46.00
65394;BME280;52002;49.760;6.512;2023-08-08T09:49:06;100058.55;;;22.82;45.98
65394;BME280;52002;49.760;6.512;2023-08-08T09:51:32;100061.67;;;22.81;45.78
65394;BME280;52002;49.760;6.512;2023-08-08T09:53:59;100052.73;;;22.80;45.53
65394;BME280;52002;49.760;6.512;2023-08-08T09:56:25;100052.39;;;22.84;45.82
65394;BME280;52002;49.760;6.512;2023-08-08T09:58:52;100050.38;;;22.84;45.61
65394;BME280;52002;49.760;6.512;2023-08-08T10:01:19;100054.03;;;22.82;45.66
65394;BME280;52002;49.760;6.512;2023-08-08T10:03:45;100054.02;;;22.92;46.07
65394;BME280;52002;49.760;6.512;2023-08-08T10:06:11;100050.16;;;23.02;45.71
65394;BME280;52002;49.760;6.512;2023-08-08T10:08:36;100049.48;;;23.06;45.63
65394;BME280;52002;49.760;6.512;2023-08-08T10:11:02;100049.52;;;23.11;45.69
65394;BME280;52002;49.760;6.512;2023-08-08T10:13:30;100048.44;;;23.21;45.17
65394;BME280;52002;49.760;6.512;2023-08-08T10:15:55;100046.54;;;23.44;44.79
65394;BME280;52002;49.760;6.512;2023-08-08T10:18:22;100047.43;;;23.54;44.02
65394;BME280;52002;49.760;6.512;2023-08-08T10:20:48;100039.84;;;23.55;43.86
65394;BME280;52002;49.760;6.512;2023-08-08T10:23:16;100033.83;;;23.57;43.76
65394;BME280;52002;49.760;6.512;2023-08-08T10:25:50;100034.52;;;23.53;43.91
65394;BME280;52002;49.760;6.512;2023-08-08T10:28:20;100028.59;;;23.51;43.57
65394;BME280;52002;49.760;6.512;2023-08-08T10:33:40;100035.92;;;23.51;43.86
65394;BME280;52002;49.760;6.512;2023-08-08T10:36:07;100034.23;;;23.55;43.69
65394;BME280;52002;49.760;6.512;2023-08-08T10:41:13;100038.56;;;23.51;43.20
65394;BME280;52002;49.760;6.512;2023-08-08T10:43:48;100041.03;;;23.53;43.52
65394;BME280;52002;49.760;6.512;2023-08-08T10:46:24;100041.64;;;23.55;43.02
65394;BME280;52002;49.760;6.512;2023-08-08T10:48:52;100040.04;;;23.55;42.99
65394;BME280;52002;49.760;6.512;2023-08-08T10:51:18;100036.66;;;23.57;43.39
65394;BME280;52002;49.760;6.512;2023-08-08T10:53:43;100026.55;;;23.64;43.35
65394;BME280;52002;49.760;6.512;2023-08-08T10:56:13;100028.16;;;23.62;43.40
65394;BME280;52002;49.760;6.512;2023-08-08T10:58:40;100027.89;;;23.56;43.36
65394;BME280;52002;49.760;6.512;2023-08-08T11:01:06;100025.79;;;23.55;43.86
65394;BME280;52002;49.760;6.512;2023-08-08T11:03:36;100024.13;;;23.48;43.80
65394;BME280;52002;49.760;6.512;2023-08-08T11:06:03;100023.95;;;23.38;43.98
65394;BME280;52002;49.760;6.512;2023-08-08T11:08:31;100026.42;;;23.26;43.98
65394;BME280;52002;49.760;6.512;2023-08-08T11:10:58;100028.95;;;23.23;43.92
65394;BME280;52002;49.760;6.512;2023-08-08T11:13:24;100018.63;;;23.42;44.13
65394;BME280;52002;49.760;6.512;2023-08-08T11:15:50;100018.77;;;23.61;44.03
65394;BME280;52002;49.760;6.512;2023-08-08T11:18:16;100009.95;;;23.53;43.50
65394;BME280;52002;49.760;6.512;2023-08-08T11:20:42;100019.81;;;23.36;43.92
65394;BME280;52002;49.760;6.512;2023-08-08T11:23:07;100011.13;;;23.22;43.73
65394;BME280;52002;49.760;6.512;2023-08-08T11:25:36;100013.79;;;23.29;44.18
65394;BME280;52002;49.760;6.512;2023-08-08T11:28:02;100012.16;;;23.34;44.15
65394;BME280;52002;49.760;6.512;2023-08-08T11:30:31;100020.81;;;23.30;43.65
65394;BME280;52002;49.760;6.512;2023-08-08T11:32:58;100017.75;;;23.16;43.54
65394;BME280;52002;49.760;6.512;2023-08-08T11:35:24;100016.65;;;23.16;43.93
65394;BME280;52002;49.760;6.512;2023-08-08T11:37:57;100018.17;;;23.25;44.23
65394;BME280;52002;49.760;6.512;2023-08-08T11:40:25;100017.04;;;23.31;43.80
65394;BME280;52002;49.760;6.512;2023-08-08T11:42:52;100014.09;;;23.12;44.30
65394;BME280;52002;49.760;6.512;2023-08-08T11:45:18;100017.27;;;22.81;44.67
65394;BME280;52002;49.760;6.512;2023-08-08T11:47:51;100016.65;;;22.47;45.17
65394;BME280;52002;49.760;6.512;2023-08-08T11:50:19;100010.32;;;22.22;45.70
65394;BME280;52002;49.760;6.512;2023-08-08T11:52:46;100005.88;;;22.24;46.03
65394;BME280;52002;49.760;6.512;2023-08-08T11:55:12;100012.03;;;22.44;46.35
65394;BME280;52002;49.760;6.512;2023-08-08T11:57:39;100007.39;;;22.75;46.14
65394;BME280;52002;49.760;6.512;2023-08-08T12:00:06;100000.73;;;22.90;45.93
65394;BME280;52002;49.760;6.512;2023-08-08T12:02:33;99999.89;;;22.91;46.08
65394;BME280;52002;49.760;6.512;2023-08-08T12:05:06;100008.10;;;22.75;46.09
65394;BME280;52002;49.760;6.512;2023-08-08T12:07:35;100005.27;;;22.52;46.58
65394;BME280;52002;49.760;6.512;2023-08-08T12:10:03;100007.72;;;22.21;46.52
65394;BME280;52002;49.760;6.512;2023-08-08T12:12:31;100008.30;;;21.87;47.31
65394;BME280;52002;49.760;6.512;2023-08-08T12:15:03;100009.42;;;21.53;47.87
65394;BME280;52002;49.760;6.512;2023-08-08T12:17:30;100012.23;;;21.22;47.98
65394;BME280;52002;49.760;6.512;2023-08-08T12:19:59;100015.40;;;20.94;48.74
65394;BME280;52002;49.760;6.512;2023-08-08T12:22:24;100012.41;;;20.75;49.24
65394;BME280;52002;49.760;6.512;2023-08-08T12:24:50;100011.32;;;20.64;49.77
65394;BME280;52002;49.760;6.512;2023-08-08T12:27:15;100004.99;;;20.58;49.91
65394;BME280;52002;49.760;6.512;2023-08-08T12:29:41;99997.05;;;20.55;49.85
65394;BME280;52002;49.760;6.512;2023-08-08T12:32:06;99988.73;;;20.51;50.22
65394;BME280;52002;49.760;6.512;2023-08-08T12:34:34;99993.27;;;20.51;50.34
65394;BME280;52002;49.760;6.512;2023-08-08T12:36:59;99993.44;;;20.46;50.45
65394;BME280;52002;49.760;6.512;2023-08-08T12:39:25;99993.30;;;20.37;50.76
65394;BME280;52002;49.760;6.512;2023-08-08T12:41:50;99984.06;;;20.31;51.18
65394;BME280;52002;49.760;6.512;2023-08-08T12:44:16;99980.52;;;20.34;51.25
65394;BME280;52002;49.760;6.512;2023-08-08T12:46:41;99975.94;;;20.67;51.33
65394;BME280;52002;49.760;6.512;2023-08-08T12:49:06;99980.81;;;21.09;51.28
65394;BME280;52002;49.760;6.512;2023-08-08T12:51:32;99965.85;;;21.43;50.86